Varamo — C4SQ2 — position and weather

sailwx.info

Track history (hours):
 
Tides and Currents Weather Stations Pressure Air Temp Water Temp Dewpoint Dewpoint Depression Visibility Wind Speed Wind Dir Waves Ship Positions

Varamo

Last reported at 2018-Jun-16 04:35 UTC. Time now 2018-Jun-23 02:57 UTC.
Position N 25°20' W 079°35'.

Length 167 m; draft 7.8 m.

Type: Cargo ship. MMSI: 210910000.

Date/timePositionNaut miles runAvg speedWind from/ knotsBaromVisibWave heightAir tempDewpointWater temp
2018-Jun-16 04:35N 25°20' W 079°35'113.2
2018-Jun-16 04:29N 25°22' W 079°36'613.0
2018-Jun-16 04:00N 25°28' W 079°37'612.4
2018-Jun-16 03:30N 25°34' W 079°39'612.2
2018-Jun-16 03:00N 25°40' W 079°40'611.2
2018-Jun-16 02:30N 25°43' W 079°45'713.7
2018-Jun-16 02:00N 25°45' W 079°52'713.5
2018-Jun-16 01:30N 25°46' W 079°60'612.1
2018-Jun-16 01:01N 25°45' W 080°07'2 3.6
2018-Jun-16 00:23N 25°46' W 080°09'0 0.0
2018-Jun-15 23:53N 25°46' W 080°09'0 0.0
2018-Jun-15 23:23N 25°46' W 080°09'0 0.0
2018-Jun-15 22:59N 25°46' W 080°09'0 0.0
2018-Jun-15 22:23N 25°46' W 080°09'0 0.0
2018-Jun-15 21:59N 25°46' W 080°09'0 0.0
2018-Jun-15 21:29N 25°46' W 080°09'0 0.0
2018-Jun-15 20:56N 25°46' W 080°09'0 0.0
2018-Jun-15 20:26N 25°46' W 080°09'0 0.0
2018-Jun-15 19:56N 25°46' W 080°09'0 0.0
2018-Jun-15 19:29N 25°46' W 080°09'0 0.0
2018-Jun-15 18:59N 25°46' W 080°09'0 0.0
2018-Jun-15 18:29N 25°46' W 080°09'0 0.0
2018-Jun-15 18:01N 25°46' W 080°09'1 2.7
2018-Jun-15 17:30N 25°46' W 080°08'510.4
2018-Jun-15 17:00N 25°46' W 080°02'510.5
2018-Jun-15 16:30N 25°48' W 079°56'611.1
2018-Jun-15 16:00N 25°49' W 079°50'611.3
2018-Jun-15 15:30N 25°51' W 079°44'611.4
2018-Jun-15 15:00N 25°52' W 079°38'510.4
2018-Jun-15 14:29N 25°56' W 079°33'612.5
2018-Jun-15 14:00N 26°02' W 079°32'612.7
2018-Jun-15 13:30N 26°08' W 079°30'611.6
2018-Jun-15 13:00N 26°13' W 079°29'30510.0
2018-Jun-14 06:27N 31°17' W 080°03'5 9.5
2018-Jun-14 05:58N 31°21' W 080°05'4 9.4
2018-Jun-14 05:30N 31°25' W 080°06'5 9.4
2018-Jun-14 05:00N 31°30' W 080°07'5 9.5
2018-Jun-14 04:30N 31°34' W 080°09'5 9.9
2018-Jun-14 03:59N 31°38' W 080°13'510.8
2018-Jun-14 03:30N 31°42' W 080°17'510.6
2018-Jun-14 03:00N 31°46' W 080°21'510.7
2018-Jun-14 02:30N 31°49' W 080°26'510.6
2018-Jun-14 02:00N 31°53' W 080°31'510.6
2018-Jun-14 01:30N 31°55' W 080°37'5 9.9
2018-Jun-14 01:00N 31°57' W 080°42'611.4
2018-Jun-14 00:30N 32°00' W 080°48'612.1
2018-Jun-14 00:00N 32°02' W 080°54'510.6
2018-Jun-13 23:31N 32°05' W 080°59'4 8.2
2018-Jun-13 23:01N 32°05' W 081°04'3 5.5
2018-Jun-13 22:30N 32°06' W 081°07'1 2.4
2018-Jun-13 21:57N 32°07' W 081°08'0 0.0
2018-Jun-13 21:30N 32°07' W 081°08'0 0.0
2018-Jun-13 21:00N 32°07' W 081°08'0 0.0
2018-Jun-13 19:24N 32°07' W 081°08'0 0.0
2018-Jun-13 19:00N 32°07' W 081°08'0 0.0
2018-Jun-13 18:30N 32°07' W 081°08'0 0.0
2018-Jun-13 18:00N 32°07' W 081°08'0 0.0
2018-Jun-13 17:30N 32°07' W 081°08'0 0.0
2018-Jun-13 16:54N 32°07' W 081°08'0 0.0
2018-Jun-13 16:30N 32°07' W 081°08'0 0.0
2018-Jun-13 16:00N 32°07' W 081°08'0 0.0
2018-Jun-13 15:30N 32°07' W 081°08'0 0.0
2018-Jun-13 14:54N 32°07' W 081°08'0 0.0
2018-Jun-13 14:30N 32°07' W 081°08'0 0.0
2018-Jun-13 13:42N 32°07' W 081°08'0 0.0
2018-Jun-13 13:30N 32°07' W 081°08'0 0.0
2018-Jun-13 13:00N 32°07' W 081°08'0 0.0
2018-Jun-13 12:30N 32°07' W 081°08'0 0.0
2018-Jun-13 11:54N 32°07' W 081°08'0 0.0
2018-Jun-13 11:30N 32°07' W 081°08'0 0.0
2018-Jun-13 11:00N 32°07' W 081°08'2 3.0
2018-Jun-13 10:30N 32°06' W 081°07'3 6.3
2018-Jun-13 10:00N 32°05' W 081°03'4 7.1
2018-Jun-13 09:30N 32°05' W 080°59'611.0
2018-Jun-13 09:00N 32°02' W 080°54'714.3
2018-Jun-13 08:30N 31°59' W 080°46'611.8
2018-Jun-13 08:00N 31°57' W 080°40'510.0
2018-Jun-13 07:30N 31°54' W 080°34'1412.2
2018-Jun-13 06:22N 31°55' W 080°18'512.7
2018-Jun-13 06:00N 31°56' W 080°13'54411.4
2018-Jun-11 06:17N 39°26' W 073°55'512.9
2018-Jun-11 05:56N 39°30' W 073°54'1012.8
2018-Jun-11 05:07N 39°41' W 073°52'213.2
2018-Jun-11 05:00N 39°42' W 073°52'612.8
2018-Jun-11 04:30N 39°49' W 073°51'713.0
2018-Jun-11 03:57N 39°56' W 073°51'612.9
2018-Jun-11 03:30N 40°02' W 073°50'2512.5
2018-Jun-11 01:31N 40°27' W 073°50'0 8.8
2018-Jun-11 01:30N 40°27' W 073°50'814.5
2018-Jun-11 00:58N 40°31' W 073°59'614.2
2018-Jun-11 00:30N 40°36' W 074°03'4 7.8
2018-Jun-11 00:00N 40°39' W 074°07'2 3.3
2018-Jun-10 23:30N 40°40' W 074°09'0 0.4
2018-Jun-10 22:56N 40°40' W 074°09'0 0.0
2018-Jun-10 22:26N 40°40' W 074°09'0 0.0
2018-Jun-10 21:50N 40°40' W 074°09'0 0.0
2018-Jun-10 21:26N 40°40' W 074°09'0 0.0
2018-Jun-10 20:59N 40°40' W 074°09'0 0.0
2018-Jun-10 20:29N 40°40' W 074°09'0 0.0
2018-Jun-10 19:59N 40°40' W 074°09'0 0.0
2018-Jun-10 19:29N 40°40' W 074°09'0 0.0
2018-Jun-10 18:59N 40°40' W 074°09'0 0.0
2018-Jun-10 18:29N 40°40' W 074°09'0 0.0
2018-Jun-10 17:59N 40°40' W 074°09'0 0.0
2018-Jun-10 17:29N 40°40' W 074°09'0 0.0
2018-Jun-10 16:59N 40°40' W 074°09'0 0.0
2018-Jun-10 16:29N 40°40' W 074°09'0 0.0
2018-Jun-10 15:56N 40°40' W 074°09'0 0.0
2018-Jun-10 15:30N 40°40' W 074°09'1 2.9
2018-Jun-10 15:00N 40°39' W 074°08'3 6.8
2018-Jun-10 14:31N 40°38' W 074°03'1211.5
2018-Jun-10 13:30N 40°29' W 073°54'1119.6
2018-Jun-10 12:55N 40°27' W 073°39'813.7
2018-Jun-10 12:20N 40°28' W 073°28'2514.0
2018-Jun-10 10:33N 40°29' W 072°56'918.4
2018-Jun-10 10:05N 40°30' W 072°44'0 0.7
2018-Jun-10 09:58N 40°30' W 072°44'  
Track history (hours):
 
Tides and Currents Weather Stations Pressure Air Temp Water Temp Dewpoint Dewpoint Depression Visibility Wind Speed Wind Dir Waves Ship Positions

Varamo

Last reported at 2018-Jun-16 04:35 UTC. Time now 2018-Jun-23 02:57 UTC.
Position N 25°20' W 079°35'.

Length 167 m; draft 7.8 m.

Type: Cargo ship. MMSI: 210910000.

Date/timePositionNaut miles runAvg speedWind from/ knotsBaromVisibWave heightAir tempDewpointWater temp
2018-Jun-16 04:35N 25°20' W 079°35'113.2
2018-Jun-16 04:29N 25°22' W 079°36'613.0
2018-Jun-16 04:00N 25°28' W 079°37'612.4
2018-Jun-16 03:30N 25°34' W 079°39'612.2
2018-Jun-16 03:00N 25°40' W 079°40'611.2
2018-Jun-16 02:30N 25°43' W 079°45'713.7
2018-Jun-16 02:00N 25°45' W 079°52'713.5
2018-Jun-16 01:30N 25°46' W 079°60'612.1
2018-Jun-16 01:01N 25°45' W 080°07'2 3.6
2018-Jun-16 00:23N 25°46' W 080°09'0 0.0
2018-Jun-15 23:53N 25°46' W 080°09'0 0.0
2018-Jun-15 23:23N 25°46' W 080°09'0 0.0
2018-Jun-15 22:59N 25°46' W 080°09'0 0.0
2018-Jun-15 22:23N 25°46' W 080°09'0 0.0
2018-Jun-15 21:59N 25°46' W 080°09'0 0.0
2018-Jun-15 21:29N 25°46' W 080°09'0 0.0
2018-Jun-15 20:56N 25°46' W 080°09'0 0.0
2018-Jun-15 20:26N 25°46' W 080°09'0 0.0
2018-Jun-15 19:56N 25°46' W 080°09'0 0.0
2018-Jun-15 19:29N 25°46' W 080°09'0 0.0
2018-Jun-15 18:59N 25°46' W 080°09'0 0.0
2018-Jun-15 18:29N 25°46' W 080°09'0 0.0
2018-Jun-15 18:01N 25°46' W 080°09'1 2.7
2018-Jun-15 17:30N 25°46' W 080°08'510.4
2018-Jun-15 17:00N 25°46' W 080°02'510.5
2018-Jun-15 16:30N 25°48' W 079°56'611.1
2018-Jun-15 16:00N 25°49' W 079°50'611.3
2018-Jun-15 15:30N 25°51' W 079°44'611.4
2018-Jun-15 15:00N 25°52' W 079°38'510.4
2018-Jun-15 14:29N 25°56' W 079°33'612.5
2018-Jun-15 14:00N 26°02' W 079°32'612.7
2018-Jun-15 13:30N 26°08' W 079°30'611.6
2018-Jun-15 13:00N 26°13' W 079°29'30510.0
2018-Jun-14 06:27N 31°17' W 080°03'5 9.5
2018-Jun-14 05:58N 31°21' W 080°05'4 9.4
2018-Jun-14 05:30N 31°25' W 080°06'5 9.4
2018-Jun-14 05:00N 31°30' W 080°07'5 9.5
2018-Jun-14 04:30N 31°34' W 080°09'5 9.9
2018-Jun-14 03:59N 31°38' W 080°13'510.8
2018-Jun-14 03:30N 31°42' W 080°17'510.6
2018-Jun-14 03:00N 31°46' W 080°21'510.7
2018-Jun-14 02:30N 31°49' W 080°26'510.6
2018-Jun-14 02:00N 31°53' W 080°31'510.6
2018-Jun-14 01:30N 31°55' W 080°37'5 9.9
2018-Jun-14 01:00N 31°57' W 080°42'611.4
2018-Jun-14 00:30N 32°00' W 080°48'612.1
2018-Jun-14 00:00N 32°02' W 080°54'510.6
2018-Jun-13 23:31N 32°05' W 080°59'4 8.2
2018-Jun-13 23:01N 32°05' W 081°04'3 5.5
2018-Jun-13 22:30N 32°06' W 081°07'1 2.4
2018-Jun-13 21:57N 32°07' W 081°08'0 0.0
2018-Jun-13 21:30N 32°07' W 081°08'0 0.0
2018-Jun-13 21:00N 32°07' W 081°08'0 0.0
2018-Jun-13 19:24N 32°07' W 081°08'0 0.0
2018-Jun-13 19:00N 32°07' W 081°08'0 0.0
2018-Jun-13 18:30N 32°07' W 081°08'0 0.0
2018-Jun-13 18:00N 32°07' W 081°08'0 0.0
2018-Jun-13 17:30N 32°07' W 081°08'0 0.0
2018-Jun-13 16:54N 32°07' W 081°08'0 0.0
2018-Jun-13 16:30N 32°07' W 081°08'0 0.0
2018-Jun-13 16:00N 32°07' W 081°08'0 0.0
2018-Jun-13 15:30N 32°07' W 081°08'0 0.0
2018-Jun-13 14:54N 32°07' W 081°08'0 0.0
2018-Jun-13 14:30N 32°07' W 081°08'0 0.0
2018-Jun-13 13:42N 32°07' W 081°08'0 0.0
2018-Jun-13 13:30N 32°07' W 081°08'0 0.0
2018-Jun-13 13:00N 32°07' W 081°08'0 0.0
2018-Jun-13 12:30N 32°07' W 081°08'0 0.0
2018-Jun-13 11:54N 32°07' W 081°08'0 0.0
2018-Jun-13 11:30N 32°07' W 081°08'0 0.0
2018-Jun-13 11:00N 32°07' W 081°08'2 3.0
2018-Jun-13 10:30N 32°06' W 081°07'3 6.3
2018-Jun-13 10:00N 32°05' W 081°03'4 7.1
2018-Jun-13 09:30N 32°05' W 080°59'611.0
2018-Jun-13 09:00N 32°02' W 080°54'714.3
2018-Jun-13 08:30N 31°59' W 080°46'611.8
2018-Jun-13 08:00N 31°57' W 080°40'510.0
2018-Jun-13 07:30N 31°54' W 080°34'1412.2
2018-Jun-13 06:22N 31°55' W 080°18'512.7
2018-Jun-13 06:00N 31°56' W 080°13'54411.4
2018-Jun-11 06:17N 39°26' W 073°55'512.9
2018-Jun-11 05:56N 39°30' W 073°54'1012.8
2018-Jun-11 05:07N 39°41' W 073°52'213.2
2018-Jun-11 05:00N 39°42' W 073°52'612.8
2018-Jun-11 04:30N 39°49' W 073°51'713.0
2018-Jun-11 03:57N 39°56' W 073°51'612.9
2018-Jun-11 03:30N 40°02' W 073°50'2512.5
2018-Jun-11 01:31N 40°27' W 073°50'0 8.8
2018-Jun-11 01:30N 40°27' W 073°50'814.5
2018-Jun-11 00:58N 40°31' W 073°59'614.2
2018-Jun-11 00:30N 40°36' W 074°03'4 7.8
2018-Jun-11 00:00N 40°39' W 074°07'2 3.3
2018-Jun-10 23:30N 40°40' W 074°09'0 0.4
2018-Jun-10 22:56N 40°40' W 074°09'0 0.0
2018-Jun-10 22:26N 40°40' W 074°09'0 0.0
2018-Jun-10 21:50N 40°40' W 074°09'0 0.0
2018-Jun-10 21:26N 40°40' W 074°09'0 0.0
2018-Jun-10 20:59N 40°40' W 074°09'0 0.0
2018-Jun-10 20:29N 40°40' W 074°09'0 0.0
2018-Jun-10 19:59N 40°40' W 074°09'0 0.0
2018-Jun-10 19:29N 40°40' W 074°09'0 0.0
2018-Jun-10 18:59N 40°40' W 074°09'0 0.0
2018-Jun-10 18:29N 40°40' W 074°09'0 0.0
2018-Jun-10 17:59N 40°40' W 074°09'0 0.0
2018-Jun-10 17:29N 40°40' W 074°09'0 0.0
2018-Jun-10 16:59N 40°40' W 074°09'0 0.0
2018-Jun-10 16:29N 40°40' W 074°09'0 0.0
2018-Jun-10 15:56N 40°40' W 074°09'0 0.0
2018-Jun-10 15:30N 40°40' W 074°09'1 2.9
2018-Jun-10 15:00N 40°39' W 074°08'3 6.8
2018-Jun-10 14:31N 40°38' W 074°03'1211.5
2018-Jun-10 13:30N 40°29' W 073°54'1119.6
2018-Jun-10 12:55N 40°27' W 073°39'813.7
2018-Jun-10 12:20N 40°28' W 073°28'2514.0
2018-Jun-10 10:33N 40°29' W 072°56'918.4
2018-Jun-10 10:05N 40°30' W 072°44'0 0.7
2018-Jun-10 09:58N 40°30' W 072°44'  

Dump ship's entire track history